createdAt,value
2023-01-31T11:39:18.265Z,61.7
2023-01-31T11:44:54.008Z,59.8
2023-01-31T11:50:29.094Z,59.6
2023-01-31T11:56:04.975Z,58.4
2023-01-31T12:01:40.581Z,60.4
2023-01-31T12:08:01.988Z,57.2
2023-01-31T12:13:37.175Z,58.2
2023-01-31T12:19:49.997Z,58.8
2023-01-31T12:25:25.103Z,58.5
2023-01-31T12:31:00.931Z,57.6
2023-01-31T12:36:38.949Z,56.3
2023-01-31T12:42:16.804Z,57.6
2023-01-31T12:47:57.784Z,57.8
2023-01-31T12:53:34.543Z,53.7
2023-01-31T12:59:17.086Z,53
2023-01-31T13:05:09.797Z,54.2
2023-01-31T13:10:45.401Z,51.3
2023-01-31T13:16:21.062Z,49.4
2023-01-31T13:22:19.422Z,51.6
2023-01-31T13:28:13.670Z,49.9
2023-01-31T13:33:48.835Z,52.2
2023-01-31T13:39:25.623Z,49.2
2023-01-31T13:45:02.401Z,47.9
2023-01-31T13:50:39.063Z,47.9
2023-01-31T13:56:16.733Z,48.6
2023-01-31T14:01:52.417Z,47.8
2023-01-31T14:07:29.920Z,48
2023-01-31T14:13:06.231Z,45.9
2023-01-31T14:18:41.847Z,43.3
2023-01-31T14:24:27.644Z,42.3
2023-01-31T14:30:05.409Z,38.4
2023-01-31T14:35:52.814Z,37.9
2023-01-31T14:41:35.214Z,34.3
2023-01-31T14:48:05.122Z,31.1
2023-01-31T14:53:38.727Z,28.1
2023-01-31T14:59:40.019Z,29.5
2023-01-31T15:05:26.292Z,26.8
2023-01-31T15:11:01.584Z,33.2
2023-01-31T15:16:37.183Z,30.3
2023-01-31T15:22:14.188Z,33.6
2023-01-31T15:27:50.577Z,41.6
2023-01-31T15:33:29.699Z,46.2
2023-01-31T15:39:07.566Z,48.8
2023-01-31T15:44:44.327Z,51.3
2023-01-31T15:50:30.532Z,52.2
2023-01-31T15:56:05.738Z,54.4
2023-01-31T16:02:04.585Z,55.5
2023-01-31T16:08:25.360Z,56.6
2023-01-31T16:14:20.929Z,56.5
2023-01-31T16:20:33.772Z,56.6
2023-01-31T16:26:08.636Z,56.3
2023-01-31T16:31:53.249Z,56
2023-01-31T16:37:30.996Z,56
2023-01-31T16:43:22.071Z,57.6
2023-01-31T16:49:24.570Z,57.4
2023-01-31T16:54:57.846Z,57.2
2023-01-31T17:00:35.713Z,59.7
2023-01-31T17:06:11.746Z,61.7
2023-01-31T17:11:50.701Z,62
2023-01-31T17:17:28.926Z,63.8
2023-01-31T17:23:19.382Z,64.9
2023-01-31T17:29:02.740Z,64.5
2023-01-31T17:34:47.971Z,64.9
2023-01-31T17:40:37.571Z,65.4
2023-01-31T17:46:40.685Z,66
2023-01-31T17:52:15.973Z,64.6
2023-01-31T17:57:55.156Z,61.6
2023-01-31T18:03:38.276Z,60.4
2023-01-31T18:09:22.979Z,60
2023-01-31T18:15:04.299Z,59.8
2023-01-31T18:20:44.672Z,59.5
2023-01-31T18:26:23.076Z,59.3
2023-01-31T18:31:59.120Z,59.4
2023-01-31T18:37:53.777Z,58.7
2023-01-31T18:43:33.857Z,58.3
2023-01-31T18:49:14.384Z,58
2023-01-31T18:54:59.029Z,57.9
2023-01-31T19:00:35.027Z,57.9
2023-01-31T19:06:29.980Z,57.8
2023-01-31T19:12:06.220Z,57.9
2023-01-31T19:17:43.869Z,58.4
2023-01-31T19:23:21.925Z,58.5
2023-01-31T19:29:09.937Z,58.6
2023-01-31T19:34:48.064Z,58.3
2023-01-31T19:40:32.774Z,59
